sensor_id;sensor_type;location;lat;lon;timestamp;pressure;altitude;pressure_sealevel;temperature;humidity
56402;BME280;42299;35.160;26.100;2024-01-15T00:02:14;101385.63;;;10.22;100.00
56402;BME280;42299;35.160;26.100;2024-01-15T00:07:37;101380.78;;;10.08;100.00
56402;BME280;42299;35.160;26.100;2024-01-15T00:12:59;101391.28;;;9.75;100.00
56402;BME280;42299;35.160;26.100;2024-01-15T00:18:23;101387.88;;;9.79;100.00
56402;BME280;42299;35.160;26.100;2024-01-15T00:23:46;101378.19;;;9.78;100.00
56402;BME280;42299;35.160;26.100;2024-01-15T00:29:08;101343.22;;;9.24;100.00
56402;BME280;42299;35.160;26.100;2024-01-15T00:34:32;101351.38;;;9.63;100.00
56402;BME280;42299;35.160;26.100;2024-01-15T00:39:55;101351.13;;;9.85;100.00
56402;BME280;42299;35.160;26.100;2024-01-15T00:45:17;101357.78;;;9.72;100.00
56402;BME280;42299;35.160;26.100;2024-01-15T00:50:41;101358.97;;;9.82;100.00
56402;BME280;42299;35.160;26.100;2024-01-15T00:56:04;101350.22;;;9.83;100.00
56402;BME280;42299;35.160;26.100;2024-01-15T01:01:26;101361.31;;;9.71;100.00
56402;BME280;42299;35.160;26.100;2024-01-15T01:06:50;101365.25;;;9.87;100.00
56402;BME280;42299;35.160;26.100;2024-01-15T01:12:13;101355.22;;;10.05;100.00
56402;BME280;42299;35.160;26.100;2024-01-15T01:17:35;101362.94;;;9.97;100.00
56402;BME280;42299;35.160;26.100;2024-01-15T01:23:00;101351.13;;;10.16;100.00
56402;BME280;42299;35.160;26.100;2024-01-15T01:28:22;101351.06;;;10.46;100.00
56402;BME280;42299;35.160;26.100;2024-01-15T01:33:45;101344.19;;;10.53;100.00
56402;BME280;42299;35.160;26.100;2024-01-15T01:39:10;101349.91;;;10.35;100.00
56402;BME280;42299;35.160;26.100;2024-01-15T01:44:32;101332.00;;;10.23;100.00
56402;BME280;42299;35.160;26.100;2024-01-15T01:49:55;101318.13;;;10.32;100.00
56402;BME280;42299;35.160;26.100;2024-01-15T01:55:20;101320.56;;;10.24;100.00
56402;BME280;42299;35.160;26.100;2024-01-15T02:00:44;101312.25;;;10.09;100.00
56402;BME280;42299;35.160;26.100;2024-01-15T02:06:06;101327.91;;;10.03;100.00
56402;BME280;42299;35.160;26.100;2024-01-15T02:11:30;101331.31;;;10.30;100.00
56402;BME280;42299;35.160;26.100;2024-01-15T02:16:53;101333.94;;;10.65;100.00
56402;BME280;42299;35.160;26.100;2024-01-15T02:22:15;101328.38;;;10.90;100.00
56402;BME280;42299;35.160;26.100;2024-01-15T02:27:40;101332.84;;;11.32;100.00
56402;BME280;42299;35.160;26.100;2024-01-15T02:33:03;101322.56;;;11.45;100.00
56402;BME280;42299;35.160;26.100;2024-01-15T02:38:25;101323.81;;;11.64;100.00
56402;BME280;42299;35.160;26.100;2024-01-15T02:43:50;101327.47;;;11.71;100.00
56402;BME280;42299;35.160;26.100;2024-01-15T02:49:13;101324.53;;;11.55;100.00
56402;BME280;42299;35.160;26.100;2024-01-15T02:54:35;101319.16;;;11.51;100.00
56402;BME280;42299;35.160;26.100;2024-01-15T02:59:59;101315.28;;;11.34;100.00
56402;BME280;42299;35.160;26.100;2024-01-15T03:05:22;101322.19;;;11.27;100.00
56402;BME280;42299;35.160;26.100;2024-01-15T03:10:44;101326.44;;;11.63;100.00
56402;BME280;42299;35.160;26.100;2024-01-15T03:16:08;101333.31;;;11.96;100.00
56402;BME280;42299;35.160;26.100;2024-01-15T03:21:30;101330.63;;;11.95;100.00
56402;BME280;42299;35.160;26.100;2024-01-15T03:26:53;101329.66;;;11.90;100.00
56402;BME280;42299;35.160;26.100;2024-01-15T03:32:17;101343.78;;;11.90;100.00
56402;BME280;42299;35.160;26.100;2024-01-15T03:37:40;101335.00;;;11.91;100.00
56402;BME280;42299;35.160;26.100;2024-01-15T03:43:03;101343.97;;;12.00;100.00
56402;BME280;42299;35.160;26.100;2024-01-15T03:48:27;101336.94;;;12.00;100.00
56402;BME280;42299;35.160;26.100;2024-01-15T03:53:49;101342.28;;;12.05;100.00
56402;BME280;42299;35.160;26.100;2024-01-15T03:59:11;101342.00;;;11.88;100.00
56402;BME280;42299;35.160;26.100;2024-01-15T04:04:36;101339.13;;;11.77;100.00
56402;BME280;42299;35.160;26.100;2024-01-15T04:09:58;101339.00;;;11.73;100.00
56402;BME280;42299;35.160;26.100;2024-01-15T04:15:21;101345.84;;;11.63;100.00
56402;BME280;42299;35.160;26.100;2024-01-15T04:20:45;101340.81;;;11.33;100.00
56402;BME280;42299;35.160;26.100;2024-01-15T04:26:08;101348.13;;;11.06;100.00
56402;BME280;42299;35.160;26.100;2024-01-15T04:31:31;101368.53;;;10.75;100.00
56402;BME280;42299;35.160;26.100;2024-01-15T04:36:55;101356.81;;;10.31;100.00
56402;BME280;42299;35.160;26.100;2024-01-15T04:42:17;101366.38;;;10.26;100.00
56402;BME280;42299;35.160;26.100;2024-01-15T04:47:40;101369.22;;;10.34;100.00
56402;BME280;42299;35.160;26.100;2024-01-15T04:53:04;101355.03;;;10.29;100.00
56402;BME280;42299;35.160;26.100;2024-01-15T04:58:27;101375.91;;;10.21;100.00
56402;BME280;42299;35.160;26.100;2024-01-15T05:03:50;101368.06;;;9.93;100.00
56402;BME280;42299;35.160;26.100;2024-01-15T05:09:14;101371.47;;;9.89;100.00
56402;BME280;42299;35.160;26.100;2024-01-15T05:14:36;101371.53;;;9.90;100.00
56402;BME280;42299;35.160;26.100;2024-01-15T05:19:59;101366.88;;;9.82;100.00
56402;BME280;42299;35.160;26.100;2024-01-15T05:25:23;101360.38;;;9.69;100.00
56402;BME280;42299;35.160;26.100;2024-01-15T05:30:45;101348.13;;;9.71;100.00
56402;BME280;42299;35.160;26.100;2024-01-15T05:36:08;101346.34;;;9.72;100.00
56402;BME280;42299;35.160;26.100;2024-01-15T05:41:32;101343.53;;;9.64;100.00
56402;BME280;42299;35.160;26.100;2024-01-15T05:46:54;101342.28;;;9.51;100.00
56402;BME280;42299;35.160;26.100;2024-01-15T05:52:17;101328.78;;;9.71;100.00
56402;BME280;42299;35.160;26.100;2024-01-15T05:57:41;101323.16;;;9.90;100.00
56402;BME280;42299;35.160;26.100;2024-01-15T06:03:03;101313.00;;;10.38;100.00
56402;BME280;42299;35.160;26.100;2024-01-15T06:08:26;101327.75;;;10.63;100.00
56402;BME280;42299;35.160;26.100;2024-01-15T06:13:50;101320.72;;;10.65;100.00
56402;BME280;42299;35.160;26.100;2024-01-15T06:19:12;101324.28;;;11.04;100.00
56402;BME280;42299;35.160;26.100;2024-01-15T06:24:35;101316.34;;;14.31;87.82
56402;BME280;42299;35.160;26.100;2024-01-15T06:29:59;101318.38;;;16.47;63.37
56402;BME280;42299;35.160;26.100;2024-01-15T06:35:21;101314.44;;;18.03;52.71
56402;BME280;42299;35.160;26.100;2024-01-15T06:40:43;101320.38;;;18.48;48.59
56402;BME280;42299;35.160;26.100;2024-01-15T06:46:07;101324.44;;;19.75;45.56
56402;BME280;42299;35.160;26.100;2024-01-15T06:51:30;101322.25;;;19.33;45.89
56402;BME280;42299;35.160;26.100;2024-01-15T06:56:53;101322.28;;;18.30;46.33
56402;BME280;42299;35.160;26.100;2024-01-15T07:02:17;101331.72;;;16.82;51.41
56402;BME280;42299;35.160;26.100;2024-01-15T07:07:39;101341.47;;;16.36;55.38
56402;BME280;42299;35.160;26.100;2024-01-15T07:13:02;101354.78;;;16.21;58.23
56402;BME280;42299;35.160;26.100;2024-01-15T07:18:27;101354.72;;;16.06;61.00
56402;BME280;42299;35.160;26.100;2024-01-15T07:23:49;101358.34;;;16.43;61.77
56402;BME280;42299;35.160;26.100;2024-01-15T07:29:12;101360.69;;;18.17;56.19
56402;BME280;42299;35.160;26.100;2024-01-15T07:34:35;101362.47;;;18.12;57.60
56402;BME280;42299;35.160;26.100;2024-01-15T07:39:58;101366.25;;;17.69;64.80
56402;BME280;42299;35.160;26.100;2024-01-15T07:45:21;101368.09;;;17.44;70.86
56402;BME280;42299;35.160;26.100;2024-01-15T07:50:45;101369.81;;;17.52;75.45
56402;BME280;42299;35.160;26.100;2024-01-15T07:56:09;101366.81;;;18.33;72.58
56402;BME280;42299;35.160;26.100;2024-01-15T08:01:31;101373.72;;;18.66;73.70
56402;BME280;42299;35.160;26.100;2024-01-15T08:06:56;101368.03;;;19.05;74.32
56402;BME280;42299;35.160;26.100;2024-01-15T08:12:19;101365.41;;;18.99;80.55
56402;BME280;42299;35.160;26.100;2024-01-15T08:17:41;101375.59;;;18.56;91.87
56402;BME280;42299;35.160;26.100;2024-01-15T08:23:05;101385.63;;;18.13;100.00
56402;BME280;42299;35.160;26.100;2024-01-15T08:28:28;101382.91;;;18.24;100.00
56402;BME280;42299;35.160;26.100;2024-01-15T08:33:51;101374.84;;;19.38;93.74
56402;BME280;42299;35.160;26.100;2024-01-15T08:39:15;101372.94;;;19.51;88.11
56402;BME280;42299;35.160;26.100;2024-01-15T08:44:39;101380.28;;;19.31;87.87
56402;BME280;42299;35.160;26.100;2024-01-15T08:50:05;101359.03;;;19.94;86.07
56402;BME280;42299;35.160;26.100;2024-01-15T08:55:29;101357.38;;;19.83;88.05
56402;BME280;42299;35.160;26.100;2024-01-15T09:00:52;101343.22;;;19.74;90.21
56402;BME280;42299;35.160;26.100;2024-01-15T09:06:14;101341.09;;;22.01;71.22
56402;BME280;42299;35.160;26.100;2024-01-15T09:11:38;101327.13;;;23.92;54.45
56402;BME280;42299;35.160;26.100;2024-01-15T09:17:00;101327.47;;;25.19;47.14
56402;BME280;42299;35.160;26.100;2024-01-15T09:22:24;101323.38;;;26.49;41.68
56402;BME280;42299;35.160;26.100;2024-01-15T09:27:48;101314.88;;;26.78;38.42
56402;BME280;42299;35.160;26.100;2024-01-15T09:33:12;101318.91;;;27.51;36.63
56402;BME280;42299;35.160;26.100;2024-01-15T09:38:35;101310.06;;;27.07;37.03
56402;BME280;42299;35.160;26.100;2024-01-15T09:43:59;101292.59;;;27.14;35.76
56402;BME280;42299;35.160;26.100;2024-01-15T09:49:22;101284.34;;;24.63;38.72
56402;BME280;42299;35.160;26.100;2024-01-15T09:54:45;101267.28;;;22.85;41.24
56402;BME280;42299;35.160;26.100;2024-01-15T10:00:10;101279.09;;;21.67;43.81
56402;BME280;42299;35.160;26.100;2024-01-15T10:05:33;101274.00;;;21.54;43.71
56402;BME280;42299;35.160;26.100;2024-01-15T10:10:56;101281.75;;;20.77;45.27
56402;BME280;42299;35.160;26.100;2024-01-15T10:16:20;101262.59;;;19.89;46.52
56402;BME280;42299;35.160;26.100;2024-01-15T10:21:42;101251.66;;;19.38;48.06
56402;BME280;42299;35.160;26.100;2024-01-15T10:27:05;101225.38;;;20.27;54.09
56402;BME280;42299;35.160;26.100;2024-01-15T10:32:30;101215.06;;;24.62;41.02
56402;BME280;42299;35.160;26.100;2024-01-15T10:37:52;101204.56;;;22.82;43.92
56402;BME280;42299;35.160;26.100;2024-01-15T10:43:15;101205.22;;;24.35;40.40
56402;BME280;42299;35.160;26.100;2024-01-15T10:48:40;101213.69;;;24.51;39.59
56402;BME280;42299;35.160;26.100;2024-01-15T10:54:03;101207.03;;;24.86;38.77
56402;BME280;42299;35.160;26.100;2024-01-15T10:59:26;101196.06;;;25.15;36.91
56402;BME280;42299;35.160;26.100;2024-01-15T11:04:51;101196.84;;;25.87;35.60
56402;BME280;42299;35.160;26.100;2024-01-15T11:10:44;101190.75;;;24.62;37.97
56402;BME280;42299;35.160;26.100;2024-01-15T11:16:11;101199.13;;;23.74;39.68
56402;BME280;42299;35.160;26.100;2024-01-15T11:21:42;101182.69;;;21.52;44.14
56402;BME280;42299;35.160;26.100;2024-01-15T11:27:05;101178.59;;;20.93;47.78
56402;BME280;42299;35.160;26.100;2024-01-15T11:32:33;101176.34;;;22.30;46.90
56402;BME280;42299;35.160;26.100;2024-01-15T11:37:58;101170.88;;;22.98;44.98
56402;BME280;42299;35.160;26.100;2024-01-15T11:43:20;101165.59;;;23.55;42.55
56402;BME280;42299;35.160;26.100;2024-01-15T11:48:44;101166.97;;;23.39;41.33
56402;BME280;42299;35.160;26.100;2024-01-15T11:54:10;101153.63;;;22.74;43.24
56402;BME280;42299;35.160;26.100;2024-01-15T11:59:34;101140.16;;;22.42;43.84
56402;BME280;42299;35.160;26.100;2024-01-15T12:04:57;101143.13;;;21.97;45.05
56402;BME280;42299;35.160;26.100;2024-01-15T12:10:21;101133.94;;;21.30;46.79
56402;BME280;42299;35.160;26.100;2024-01-15T12:15:44;101134.06;;;20.81;47.64
56402;BME280;42299;35.160;26.100;2024-01-15T12:21:07;101127.75;;;20.41;49.57
56402;BME280;42299;35.160;26.100;2024-01-15T12:26:31;101132.38;;;20.29;52.81
56402;BME280;42299;35.160;26.100;2024-01-15T12:31:54;101137.50;;;20.43;55.82
56402;BME280;42299;35.160;26.100;2024-01-15T12:37:18;101144.75;;;20.38;57.83
56402;BME280;42299;35.160;26.100;2024-01-15T12:42:42;101153.56;;;19.93;58.91
56402;BME280;42299;35.160;26.100;2024-01-15T12:48:05;101139.81;;;19.59;60.84
56402;BME280;42299;35.160;26.100;2024-01-15T12:53:27;101144.72;;;19.26;65.28
56402;BME280;42299;35.160;26.100;2024-01-15T12:58:51;101157.47;;;19.09;67.91
56402;BME280;42299;35.160;26.100;2024-01-15T13:04:21;101145.25;;;18.85;70.92
56402;BME280;42299;35.160;26.100;2024-01-15T13:09:44;101143.78;;;18.61;77.79
56402;BME280;42299;35.160;26.100;2024-01-15T13:15:08;101175.25;;;18.30;86.89
56402;BME280;42299;35.160;26.100;2024-01-15T13:20:32;101191.53;;;18.02;94.12
56402;BME280;42299;35.160;26.100;2024-01-15T13:25:55;101198.06;;;17.64;100.00
56402;BME280;42299;35.160;26.100;2024-01-15T13:31:19;101186.59;;;17.36;100.00
56402;BME280;42299;35.160;26.100;2024-01-15T13:36:41;101197.38;;;17.15;100.00
56402;BME280;42299;35.160;26.100;2024-01-15T13:42:04;101168.91;;;17.14;100.00
56402;BME280;42299;35.160;26.100;2024-01-15T13:47:28;101179.63;;;17.09;100.00
56402;BME280;42299;35.160;26.100;2024-01-15T13:52:50;101159.97;;;17.27;100.00
56402;BME280;42299;35.160;26.100;2024-01-15T13:58:13;101174.16;;;17.38;100.00
56402;BME280;42299;35.160;26.100;2024-01-15T14:03:37;101177.72;;;17.33;100.00
56402;BME280;42299;35.160;26.100;2024-01-15T14:08:59;101168.88;;;17.26;100.00
56402;BME280;42299;35.160;26.100;2024-01-15T14:14:22;101170.75;;;17.06;100.00
56402;BME280;42299;35.160;26.100;2024-01-15T14:19:46;101166.38;;;16.88;100.00
56402;BME280;42299;35.160;26.100;2024-01-15T14:25:08;101149.50;;;16.85;100.00
56402;BME280;42299;35.160;26.100;2024-01-15T14:30:31;101140.66;;;16.55;100.00
56402;BME280;42299;35.160;26.100;2024-01-15T14:35:55;101146.09;;;16.07;100.00
56402;BME280;42299;35.160;26.100;2024-01-15T14:41:18;101158.53;;;15.85;100.00
56402;BME280;42299;35.160;26.100;2024-01-15T14:46:40;101174.47;;;15.77;100.00
56402;BME280;42299;35.160;26.100;2024-01-15T14:52:05;101190.44;;;15.61;100.00
56402;BME280;42299;35.160;26.100;2024-01-15T14:57:28;101200.97;;;15.29;100.00
56402;BME280;42299;35.160;26.100;2024-01-15T15:02:50;101191.94;;;14.93;100.00
56402;BME280;42299;35.160;26.100;2024-01-15T15:08:14;101182.06;;;14.63;100.00
56402;BME280;42299;35.160;26.100;2024-01-15T15:13:36;101171.41;;;14.65;100.00
56402;BME280;42299;35.160;26.100;2024-01-15T15:18:59;101162.59;;;14.72;100.00
56402;BME280;42299;35.160;26.100;2024-01-15T15:24:23;101148.41;;;14.67;100.00
56402;BME280;42299;35.160;26.100;2024-01-15T15:29:45;101143.16;;;14.84;100.00
56402;BME280;42299;35.160;26.100;2024-01-15T15:35:09;101151.22;;;14.96;100.00
56402;BME280;42299;35.160;26.100;2024-01-15T15:40:33;101167.19;;;15.11;100.00
56402;BME280;42299;35.160;26.100;2024-01-15T15:45:55;101186.66;;;14.99;100.00
56402;BME280;42299;35.160;26.100;2024-01-15T15:51:18;101193.72;;;14.97;100.00
56402;BME280;42299;35.160;26.100;2024-01-15T15:56:42;101191.03;;;14.91;100.00
56402;BME280;42299;35.160;26.100;2024-01-15T16:02:08;101184.75;;;14.77;100.00
56402;BME280;42299;35.160;26.100;2024-01-15T16:07:30;101174.06;;;14.65;100.00
56402;BME280;42299;35.160;26.100;2024-01-15T16:12:54;101199.78;;;14.63;100.00
56402;BME280;42299;35.160;26.100;2024-01-15T16:18:17;101204.06;;;14.46;100.00
56402;BME280;42299;35.160;26.100;2024-01-15T16:23:39;101218.25;;;14.46;100.00
56402;BME280;42299;35.160;26.100;2024-01-15T16:29:03;101207.63;;;14.48;100.00
56402;BME280;42299;35.160;26.100;2024-01-15T16:34:26;101216.44;;;14.41;100.00
56402;BME280;42299;35.160;26.100;2024-01-15T16:39:48;101201.38;;;14.41;100.00
56402;BME280;42299;35.160;26.100;2024-01-15T16:45:13;101209.28;;;14.35;100.00
56402;BME280;42299;35.160;26.100;2024-01-15T16:50:35;101207.66;;;14.49;100.00
56402;BME280;42299;35.160;26.100;2024-01-15T16:55:58;101204.19;;;14.64;100.00
56402;BME280;42299;35.160;26.100;2024-01-15T17:01:22;101196.28;;;14.70;100.00
56402;BME280;42299;35.160;26.100;2024-01-15T17:06:45;101198.88;;;14.64;100.00
56402;BME280;42299;35.160;26.100;2024-01-15T17:12:07;101207.63;;;14.51;100.00
56402;BME280;42299;35.160;26.100;2024-01-15T17:17:31;101189.78;;;14.30;100.00
56402;BME280;42299;35.160;26.100;2024-01-15T17:22:54;101188.75;;;14.14;100.00
56402;BME280;42299;35.160;26.100;2024-01-15T17:28:16;101186.16;;;14.22;100.00
56402;BME280;42299;35.160;26.100;2024-01-15T17:33:40;101179.09;;;14.22;100.00
56402;BME280;42299;35.160;26.100;2024-01-15T17:39:03;101173.72;;;14.18;100.00
56402;BME280;42299;35.160;26.100;2024-01-15T17:44:26;101172.78;;;14.11;100.00
56402;BME280;42299;35.160;26.100;2024-01-15T17:49:50;101179.13;;;14.28;100.00
56402;BME280;42299;35.160;26.100;2024-01-15T17:55:13;101191.72;;;14.54;100.00
56402;BME280;42299;35.160;26.100;2024-01-15T18:00:36;101179.34;;;14.57;100.00
56402;BME280;42299;35.160;26.100;2024-01-15T18:06:00;101177.72;;;14.82;100.00
56402;BME280;42299;35.160;26.100;2024-01-15T18:11:23;101153.03;;;15.07;100.00
56402;BME280;42299;35.160;26.100;2024-01-15T18:16:45;101133.56;;;15.21;100.00
56402;BME280;42299;35.160;26.100;2024-01-15T18:22:11;101118.44;;;15.06;100.00
56402;BME280;42299;35.160;26.100;2024-01-15T18:27:34;101109.56;;;15.04;100.00
56402;BME280;42299;35.160;26.100;2024-01-15T18:32:57;101113.09;;;14.94;100.00
56402;BME280;42299;35.160;26.100;2024-01-15T18:38:21;101062.56;;;14.86;100.00
56402;BME280;42299;35.160;26.100;2024-01-15T18:43:43;101073.19;;;14.92;100.00
56402;BME280;42299;35.160;26.100;2024-01-15T18:49:06;101110.41;;;14.83;100.00
56402;BME280;42299;35.160;26.100;2024-01-15T18:54:30;101102.44;;;14.83;100.00
56402;BME280;42299;35.160;26.100;2024-01-15T18:59:52;101115.75;;;14.94;100.00
56402;BME280;42299;35.160;26.100;2024-01-15T19:05:14;101135.25;;;14.94;100.00
56402;BME280;42299;35.160;26.100;2024-01-15T19:10:39;101102.41;;;14.80;100.00
56402;BME280;42299;35.160;26.100;2024-01-15T19:16:02;101105.88;;;14.62;100.00
56402;BME280;42299;35.160;26.100;2024-01-15T19:21:24;101105.81;;;14.50;100.00
56402;BME280;42299;35.160;26.100;2024-01-15T19:26:50;101096.03;;;14.42;100.00
56402;BME280;42299;35.160;26.100;2024-01-15T19:32:13;101079.16;;;14.36;100.00
56402;BME280;42299;35.160;26.100;2024-01-15T19:37:36;101048.13;;;14.29;100.00
56402;BME280;42299;35.160;26.100;2024-01-15T19:43:00;101094.16;;;14.31;100.00
56402;BME280;42299;35.160;26.100;2024-01-15T19:48:23;101097.63;;;14.20;100.00
56402;BME280;42299;35.160;26.100;2024-01-15T19:53:45;101078.91;;;13.95;100.00
56402;BME280;42299;35.160;26.100;2024-01-15T19:59:09;101075.22;;;13.77;100.00
56402;BME280;42299;35.160;26.100;2024-01-15T20:04:32;101084.09;;;13.82;100.00
56402;BME280;42299;35.160;26.100;2024-01-15T20:09:54;101076.31;;;14.08;100.00
56402;BME280;42299;35.160;26.100;2024-01-15T20:15:19;101089.69;;;14.24;100.00
56402;BME280;42299;35.160;26.100;2024-01-15T20:20:41;101087.13;;;14.38;100.00
56402;BME280;42299;35.160;26.100;2024-01-15T20:26:04;101085.44;;;14.48;100.00
56402;BME280;42299;35.160;26.100;2024-01-15T20:31:29;101062.47;;;14.60;100.00
56402;BME280;42299;35.160;26.100;2024-01-15T20:36:52;101012.03;;;14.82;100.00
56402;BME280;42299;35.160;26.100;2024-01-15T20:42:14;100999.66;;;14.97;100.00
56402;BME280;42299;35.160;26.100;2024-01-15T20:47:39;101006.78;;;15.03;100.00
56402;BME280;42299;35.160;26.100;2024-01-15T20:53:01;100994.38;;;15.08;100.00
56402;BME280;42299;35.160;26.100;2024-01-15T20:58:24;100979.28;;;15.18;100.00
56402;BME280;42299;35.160;26.100;2024-01-15T21:03:48;100982.84;;;15.33;100.00
56402;BME280;42299;35.160;26.100;2024-01-15T21:09:11;100960.69;;;15.62;100.00
56402;BME280;42299;35.160;26.100;2024-01-15T21:14:33;100961.50;;;15.86;100.00
56402;BME280;42299;35.160;26.100;2024-01-15T21:19:58;100969.44;;;16.08;100.00
56402;BME280;42299;35.160;26.100;2024-01-15T21:25:21;100982.78;;;15.91;100.00
56402;BME280;42299;35.160;26.100;2024-01-15T21:30:43;100981.97;;;15.54;100.00
56402;BME280;42299;35.160;26.100;2024-01-15T21:36:08;100969.53;;;15.62;100.00
56402;BME280;42299;35.160;26.100;2024-01-15T21:41:31;100961.56;;;15.68;100.00
56402;BME280;42299;35.160;26.100;2024-01-15T21:46:54;100968.59;;;15.84;100.00
56402;BME280;42299;35.160;26.100;2024-01-15T21:52:18;100923.28;;;16.04;100.00
56402;BME280;42299;35.160;26.100;2024-01-15T21:57:40;100935.56;;;16.28;100.00
56402;BME280;42299;35.160;26.100;2024-01-15T22:03:04;100911.56;;;16.35;100.00
56402;BME280;42299;35.160;26.100;2024-01-15T22:08:28;100886.66;;;16.41;100.00
56402;BME280;42299;35.160;26.100;2024-01-15T22:13:51;100863.50;;;16.52;100.00
56402;BME280;42299;35.160;26.100;2024-01-15T22:19:14;100863.47;;;16.58;100.00
56402;BME280;42299;35.160;26.100;2024-01-15T22:24:38;100881.22;;;16.58;100.00
56402;BME280;42299;35.160;26.100;2024-01-15T22:30:01;100856.41;;;16.53;100.00
56402;BME280;42299;35.160;26.100;2024-01-15T22:35:23;100869.69;;;16.59;100.00
56402;BME280;42299;35.160;26.100;2024-01-15T22:40:48;100845.69;;;16.56;100.00
56402;BME280;42299;35.160;26.100;2024-01-15T22:46:10;100835.09;;;16.48;100.00
56402;BME280;42299;35.160;26.100;2024-01-15T22:51:33;100857.28;;;16.50;100.00
56402;BME280;42299;35.160;26.100;2024-01-15T22:56:57;100835.94;;;16.55;100.00
56402;BME280;42299;35.160;26.100;2024-01-15T23:02:21;100819.94;;;16.58;100.00
56402;BME280;42299;35.160;26.100;2024-01-15T23:07:44;100828.75;;;16.69;100.00
56402;BME280;42299;35.160;26.100;2024-01-15T23:13:08;100798.53;;;16.73;100.00
56402;BME280;42299;35.160;26.100;2024-01-15T23:18:31;100823.41;;;16.69;100.00
56402;BME280;42299;35.160;26.100;2024-01-15T23:23:53;100839.41;;;16.67;100.00
56402;BME280;42299;35.160;26.100;2024-01-15T23:29:17;100820.69;;;16.77;100.00
56402;BME280;42299;35.160;26.100;2024-01-15T23:34:40;100864.22;;;16.80;100.00
56402;BME280;42299;35.160;26.100;2024-01-15T23:40:03;100821.63;;;16.68;100.00
56402;BME280;42299;35.160;26.100;2024-01-15T23:45:27;100819.81;;;16.76;100.00
56402;BME280;42299;35.160;26.100;2024-01-15T23:50:50;100802.03;;;16.78;100.00
56402;BME280;42299;35.160;26.100;2024-01-15T23:56:13;100827.75;;;16.84;100.00
